Time;durP1;ratioP1;P1;durP2;ratioP2;P2;SDS_P1;SDS_P2;PMS_P1;PMS_P2;Temp;Humidity;BMP_temperature;BMP_pressure;BME280_temperature;BME280_humidity;BME280_pressure;Samples;Min_cycle;Max_cycle;Signal;HPM_P1;HPM_P2
2022/09/15 00:00:11;;;;;;;;;;;;;;;20.07;61.36;100373.91;1021479;29;662;-74
2022/09/15 00:01:01;;;;;;;;;;;;;;;20.07;61.47;100376.63;1020407;29;643;-74
2022/09/15 00:01:52;;;;;;;;;;;;;;;20.06;61.36;100375.78;1020919;29;725;-74
2022/09/15 00:02:42;;;;;;;;;;;;;;;20.06;61.82;100375.78;1021478;28;623;-75
2022/09/15 00:03:33;;;;;;;;;;;;;;;20.03;61.76;100376.16;1021074;29;596;-74
2022/09/15 00:04:23;;;;;;;;;;;;;;;20.05;61.86;100378.69;1021481;28;615;-74
2022/09/15 00:05:13;;;;;;;;;;;;;;;20.06;61.29;100377.69;1021314;29;651;-73
2022/09/15 00:06:04;;;;;;;;;;;;;;;20.05;61.31;100381.41;1021507;28;640;-74
2022/09/15 00:06:54;;;;;;;;;;;;;;;20.05;61.46;100381.41;1021500;29;673;-75
2022/09/15 00:07:45;;;;;;;;;;;;;;;20.05;61.70;100371.41;1013945;29;800;-75
2022/09/15 00:08:35;;;;;;;;;;;;;;;20.05;61.76;100371.41;1013285;29;713;-75
2022/09/15 00:09:26;;;;;;;;;;;;;;;20.04;61.73;100377.84;1016372;29;679;-75
2022/09/15 00:10:16;;;;;;;;;;;;;;;20.03;61.61;100372.59;1016917;29;687;-75
2022/09/15 00:11:07;;;;;;;;;;;;;;;20.01;61.74;100372.78;1016954;29;660;-75
2022/09/15 00:11:57;;;;;;;;;;;;;;;20.03;61.32;100378.00;1017091;29;705;-75
2022/09/15 00:12:48;;;;;;;;;;;;;;;20.03;61.92;100372.59;1016939;29;675;-75
2022/09/15 00:13:38;;;;;;;;;;;;;;;20.01;61.82;100375.47;1016948;29;886;-75
2022/09/15 00:14:28;;;;;;;;;;;;;;;20.00;61.21;100373.78;1016839;29;663;-75
2022/09/15 00:15:19;;;;;;;;;;;;;;;20.03;61.45;100378.00;1016920;29;675;-75
2022/09/15 00:16:09;;;;;;;;;;;;;;;20.01;61.88;100374.63;1016884;29;1952;-75
2022/09/15 00:17:00;;;;;;;;;;;;;;;20.00;61.83;100367.53;1016958;29;718;-74
2022/09/15 00:17:50;;;;;;;;;;;;;;;20.00;61.67;100375.66;1016886;29;686;-74
2022/09/15 00:18:41;;;;;;;;;;;;;;;20.01;61.94;100374.63;1017008;29;620;-74
2022/09/15 00:19:31;;;;;;;;;;;;;;;20.00;61.52;100375.66;1016911;29;699;-74
2022/09/15 00:20:21;;;;;;;;;;;;;;;20.01;61.80;100375.47;1016957;29;651;-75
2022/09/15 00:21:12;;;;;;;;;;;;;;;20.03;61.60;100378.00;1016956;29;818;-75
2022/09/15 00:22:02;;;;;;;;;;;;;;;20.00;61.73;100379.19;1016891;29;687;-74
2022/09/15 00:22:53;;;;;;;;;;;;;;;20.00;61.63;100373.78;1016975;29;630;-76
2022/09/15 00:23:43;;;;;;;;;;;;;;;20.00;61.80;100373.78;1016964;29;702;-75
2022/09/15 00:24:34;;;;;;;;;;;;;;;19.99;61.94;100380.22;1016901;29;648;-75
2022/09/15 00:25:25;;;;;;;;;;;;;;;20.00;61.62;100381.06;1016941;29;698;-74
2022/09/15 00:26:15;;;;;;;;;;;;;;;20.00;61.59;100376.50;1016820;29;686;-74
2022/09/15 00:27:06;;;;;;;;;;;;;;;19.99;61.71;100382.06;1016975;29;635;-74
2022/09/15 00:27:56;;;;;;;;;;;;;;;19.98;61.63;100386.63;1017606;29;603;-73
2022/09/15 00:28:47;;;;;;;;;;;;;;;19.98;61.41;100373.09;1017054;29;694;-73
2022/09/15 00:29:37;;;;;;;;;;;;;;;19.99;61.86;100382.06;1016925;29;733;-73
2022/09/15 00:30:28;;;;;;;;;;;;;;;19.99;61.43;100376.66;1016838;29;683;-74
2022/09/15 00:31:18;;;;;;;;;;;;;;;20.00;61.62;100383.75;1016970;29;627;-73
2022/09/15 00:32:09;;;;;;;;;;;;;;;19.97;61.48;100382.25;1016848;29;720;-74
2022/09/15 00:32:59;;;;;;;;;;;;;;;19.97;61.44;100379.53;1017038;29;563;-73
2022/09/15 00:33:50;;;;;;;;;;;;;;;19.97;61.56;100379.53;1016842;29;678;-73
2022/09/15 00:34:40;;;;;;;;;;;;;;;19.96;61.17;100372.44;1016884;29;719;-74
2022/09/15 00:35:31;;;;;;;;;;;;;;;19.96;61.28;100377.84;1016911;29;711;-73
2022/09/15 00:36:21;;;;;;;;;;;;;;;19.98;61.82;100372.25;1016789;29;641;-74
2022/09/15 00:37:11;;;;;;;;;;;;;;;19.97;61.82;100381.41;1016962;29;707;-74
2022/09/15 00:38:02;;;;;;;;;;;;;;;19.97;61.56;100378.69;1016899;29;666;-72
2022/09/15 00:38:52;;;;;;;;;;;;;;;19.97;61.79;100371.41;1016814;29;624;-74
2022/09/15 00:39:43;;;;;;;;;;;;;;;19.97;61.38;100373.28;1016749;29;1014;-73
2022/09/15 00:40:33;;;;;;;;;;;;;;;19.95;61.70;100373.44;1016955;29;687;-73
2022/09/15 00:41:23;;;;;;;;;;;;;;;19.97;61.71;100381.41;1017386;29;647;-75
2022/09/15 00:42:14;;;;;;;;;;;;;;;19.95;61.85;100376.16;1016886;29;651;-73
2022/09/15 00:43:05;;;;;;;;;;;;;;;19.97;61.61;100376.81;1016958;29;679;-73
2022/09/15 00:43:55;;;;;;;;;;;;;;;19.97;61.86;100373.28;1016882;29;702;-73
2022/09/15 00:44:46;;;;;;;;;;;;;;;19.95;61.69;100376.16;1016828;29;628;-73
2022/09/15 00:45:36;;;;;;;;;;;;;;;19.96;61.78;100380.56;1016887;29;678;-73
2022/09/15 00:46:27;;;;;;;;;;;;;;;19.97;61.52;100379.53;1016889;29;608;-73
2022/09/15 00:47:17;;;;;;;;;;;;;;;19.95;62.25;100381.56;1021959;29;1228;-73
2022/09/15 00:48:07;;;;;;;;;;;;;;;19.96;61.62;100382.41;1017514;29;654;-72
2022/09/15 00:48:58;;;;;;;;;;;;;;;19.96;61.55;100377.84;1016270;29;675;-73
2022/09/15 00:49:48;;;;;;;;;;;;;;;19.95;61.97;100376.16;1019639;29;1647;-73
2022/09/15 00:50:39;;;;;;;;;;;;;;;19.97;61.89;100384.09;1021277;29;697;-73
2022/09/15 00:51:29;;;;;;;;;;;;;;;19.95;61.97;100383.41;1021439;28;686;-73
2022/09/15 00:52:19;;;;;;;;;;;;;;;19.95;61.96;100383.41;1021293;29;639;-74
2022/09/15 00:53:10;;;;;;;;;;;;;;;19.94;62.09;100384.44;1021326;29;568;-73
2022/09/15 00:54:01;;;;;;;;;;;;;;;19.93;61.53;100378.19;1021418;28;658;-73
2022/09/15 00:54:51;;;;;;;;;;;;;;;19.95;62.23;100391.53;1020244;29;710;-74
2022/09/15 00:55:41;;;;;;;;;;;;;;;19.95;61.72;100386.13;1021372;29;622;-73
2022/09/15 00:56:32;;;;;;;;;;;;;;;19.96;62.07;100387.81;1021358;28;655;-74
2022/09/15 00:57:22;;;;;;;;;;;;;;;19.91;62.06;100379.38;1021311;28;797;-73
2022/09/15 00:58:13;;;;;;;;;;;;;;;19.89;62.25;100384.09;1017168;29;738;-73
2022/09/15 00:59:03;;;;;;;;;;;;;;;19.85;61.64;100382.78;1016099;29;603;-73
2022/09/15 00:59:54;;;;;;;;;;;;;;;19.82;62.50;100385.81;1019452;29;706;-73
2022/09/15 01:00:44;;;;;;;;;;;;;;;19.85;61.87;100383.63;1021390;29;646;-74
2022/09/15 01:01:34;;;;;;;;;;;;;;;19.86;61.94;100382.59;1021515;28;534;-74
2022/09/15 01:02:25;;;;;;;;;;;;;;;19.88;62.11;100385.13;1022065;28;576;-74
2022/09/15 01:03:16;;;;;;;;;;;;;;;19.89;62.15;100392.22;1022112;29;673;-74
2022/09/15 01:04:07;;;;;;;;;;;;;;;19.88;61.93;100385.13;1020952;29;691;-74
2022/09/15 01:04:57;;;;;;;;;;;;;;;19.88;62.17;100390.56;1022044;29;666;-73
2022/09/15 01:05:48;;;;;;;;;;;;;;;19.91;62.11;100390.19;1021928;28;631;-73
2022/09/15 01:06:38;;;;;;;;;;;;;;;19.90;62.14;100389.34;1022072;28;631;-74
2022/09/15 01:07:28;;;;;;;;;;;;;;;19.91;62.24;100393.72;1021982;29;674;-74
2022/09/15 01:08:19;;;;;;;;;;;;;;;19.91;61.70;100390.19;1018160;29;738;-74
2022/09/15 01:09:09;;;;;;;;;;;;;;;19.90;62.06;100389.34;1016516;29;739;-74
2022/09/15 01:10:00;;;;;;;;;;;;;;;19.86;62.26;100388.00;1019046;29;1670;-74
2022/09/15 01:10:50;;;;;;;;;;;;;;;19.84;61.83;100384.63;1022605;28;686;-75
2022/09/15 01:11:41;;;;;;;;;;;;;;;19.87;61.80;100394.28;1022038;29;632;-74
2022/09/15 01:12:31;;;;;;;;;;;;;;;19.87;62.09;100387.00;1022580;28;646;-74
2022/09/15 01:13:22;;;;;;;;;;;;;;;19.87;61.98;100386.16;1022079;29;745;-74
2022/09/15 01:14:12;;;;;;;;;;;;;;;19.88;62.06;100385.13;1022520;28;678;-73
2022/09/15 01:15:03;;;;;;;;;;;;;;;19.88;62.17;100383.28;1021010;29;608;-74
2022/09/15 01:15:53;;;;;;;;;;;;;;;19.81;62.56;100387.66;1022524;28;1977;-73
2022/09/15 01:16:43;;;;;;;;;;;;;;;19.83;62.34;100391.06;1021939;28;1141;-74
2022/09/15 01:17:34;;;;;;;;;;;;;;;19.84;62.22;100392.75;1020631;29;611;-74
2022/09/15 01:18:24;;;;;;;;;;;;;;;19.85;62.30;100388.19;1019444;29;615;-74
2022/09/15 01:19:15;;;;;;;;;;;;;;;19.85;62.02;100389.03;1020704;29;608;-74
2022/09/15 01:20:05;;;;;;;;;;;;;;;19.85;62.31;100391.72;1020829;29;682;-74
2022/09/15 01:20:56;;;;;;;;;;;;;;;19.85;61.79;100390.88;1020739;29;662;-74
2022/09/15 01:21:46;;;;;;;;;;;;;;;19.86;61.57;100387.16;1020766;29;687;-74
2022/09/15 01:22:36;;;;;;;;;;;;;;;19.82;62.22;100383.09;1020929;29;693;-74
2022/09/15 01:23:27;;;;;;;;;;;;;;;19.82;62.02;100389.38;1020815;29;584;-74
2022/09/15 01:24:17;;;;;;;;;;;;;;;19.83;61.82;100382.94;1020839;29;643;-74
2022/09/15 01:25:08;;;;;;;;;;;;;;;19.84;62.33;100383.78;1020772;29;627;-74
2022/09/15 01:25:58;;;;;;;;;;;;;;;19.85;62.18;100388.19;1019860;29;910;-74
2022/09/15 01:26:49;;;;;;;;;;;;;;;19.84;62.22;100386.50;1020447;29;683;-74
2022/09/15 01:27:39;;;;;;;;;;;;;;;19.83;61.82;100385.66;1020349;29;666;-74
2022/09/15 01:28:29;;;;;;;;;;;;;;;19.84;62.43;100383.78;1020182;29;1485;-74
2022/09/15 01:29:20;;;;;;;;;;;;;;;19.84;62.26;100389.19;1020265;29;670;-73
2022/09/15 01:30:10;;;;;;;;;;;;;;;19.84;62.08;100392.75;1016801;29;1708;-74
2022/09/15 01:31:01;;;;;;;;;;;;;;;19.84;62.44;100391.91;1016858;29;727;-74
2022/09/15 01:33:04;;;;;;;;;;;;;;;19.83;62.11;100390.22;1017425;29;666;-74
2022/09/15 01:33:54;;;;;;;;;;;;;;;19.83;62.49;100392.91;1018690;29;638;-74
2022/09/15 01:34:44;;;;;;;;;;;;;;;19.82;62.46;100393.94;1018513;29;724;-74
2022/09/15 01:35:35;;;;;;;;;;;;;;;19.83;61.81;100387.50;1018674;29;800;-74
2022/09/15 01:36:25;;;;;;;;;;;;;;;19.82;62.23;100392.06;1016905;29;717;-73
2022/09/15 01:37:16;;;;;;;;;;;;;;;19.83;61.89;100392.91;1018565;29;597;-74
2022/09/15 01:38:06;;;;;;;;;;;;;;;19.77;62.34;100392.56;1018520;29;655;-74
2022/09/15 01:38:59;;;;;;;;;;;;;;;19.77;62.22;100389.88;1018242;29;926;-72
2022/09/15 01:39:50;;;;;;;;;;;;;;;19.79;62.34;100392.41;1018851;29;1489;-74
2022/09/15 01:40:40;;;;;;;;;;;;;;;19.81;62.26;100394.94;1016290;29;643;-74
2022/09/15 01:41:31;;;;;;;;;;;;;;;19.79;62.42;100396.97;1016406;29;580;-74
2022/09/15 01:42:21;;;;;;;;;;;;;;;19.80;62.10;100390.53;1016290;29;619;-74
2022/09/15 01:43:11;;;;;;;;;;;;;;;19.80;62.50;100387.84;1016835;29;671;-74
2022/09/15 01:44:02;;;;;;;;;;;;;;;19.80;62.30;100394.09;1016248;29;840;-73
2022/09/15 01:44:53;;;;;;;;;;;;;;;19.80;61.86;100394.09;1016860;29;589;-73
2022/09/15 01:45:44;;;;;;;;;;;;;;;19.80;62.13;100396.78;1017406;29;718;-73
2022/09/15 01:46:34;;;;;;;;;;;;;;;19.80;61.74;100388.69;1016862;29;674;-73
2022/09/15 01:47:25;;;;;;;;;;;;;;;19.80;62.47;100393.25;1023619;29;1207;-72
2022/09/15 01:48:15;;;;;;;;;;;;;;;19.79;62.50;100397.81;1020934;29;1654;-73
2022/09/15 01:49:05;;;;;;;;;;;;;;;19.68;61.46;100395.47;1020789;29;639;-73
2022/09/15 01:49:56;;;;;;;;;;;;;;;19.72;62.08;100386.81;1020911;28;1631;-73
2022/09/15 01:50:46;;;;;;;;;;;;;;;19.76;62.10;100390.03;1016336;29;686;-73
2022/09/15 01:51:37;;;;;;;;;;;;;;;19.75;62.27;100393.75;1016377;29;678;-73
2022/09/15 01:52:28;;;;;;;;;;;;;;;19.76;62.02;100396.28;1016322;29;639;-74
2022/09/15 01:53:18;;;;;;;;;;;;;;;19.79;62.28;100394.25;1017350;29;663;-74
2022/09/15 01:54:08;;;;;;;;;;;;;;;19.76;62.61;100388.16;1016401;29;706;-73
2022/09/15 01:54:59;;;;;;;;;;;;;;;19.77;62.34;100387.16;1016774;29;741;-73
2022/09/15 01:55:49;;;;;;;;;;;;;;;19.75;62.55;100386.47;1016198;29;636;-73
2022/09/15 01:56:40;;;;;;;;;;;;;;;19.76;62.33;100390.88;1016373;29;655;-74
2022/09/15 01:57:32;;;;;;;;;;;;;;;19.77;62.32;100389.88;1017822;29;646;-74
2022/09/15 01:58:22;;;;;;;;;;;;;;;19.78;62.45;100396.13;1018015;29;764;-73
2022/09/15 01:59:13;;;;;;;;;;;;;;;19.77;62.10;100389.88;1016397;29;726;-74
2022/09/15 02:00:04;;;;;;;;;;;;;;;19.76;62.22;100398.16;1016198;29;706;-73
2022/09/15 02:00:54;;;;;;;;;;;;;;;19.75;62.07;100400.00;1017308;29;659;-73
2022/09/15 02:01:48;;;;;;;;;;;;;;;19.76;62.35;100392.75;1016236;29;648;-74
2022/09/15 02:02:38;;;;;;;;;;;;;;;19.74;62.15;100390.19;1017430;29;774;-74
2022/09/15 02:03:32;;;;;;;;;;;;;;;19.74;61.89;100400.16;1016454;29;872;-73
2022/09/15 02:04:22;;;;;;;;;;;;;;;19.74;62.15;100395.59;1017382;29;691;-74
2022/09/15 02:05:13;;;;;;;;;;;;;;;19.74;62.04;100390.19;1016319;29;682;-74
2022/09/15 02:06:03;;;;;;;;;;;;;;;19.75;62.09;100393.75;1017869;29;655;-73
2022/09/15 02:06:54;;;;;;;;;;;;;;;19.74;62.48;100392.06;1016902;29;663;-76
2022/09/15 02:07:46;;;;;;;;;;;;;;;19.73;61.76;100393.91;1016184;29;632;-74
2022/09/15 02:08:36;;;;;;;;;;;;;;;19.74;62.08;100392.06;1018374;29;655;-74
2022/09/15 02:09:27;;;;;;;;;;;;;;;19.74;61.94;100395.59;1017275;29;686;-73
2022/09/15 02:10:17;;;;;;;;;;;;;;;19.73;61.85;100398.47;1017294;29;603;-74
2022/09/15 02:11:08;;;;;;;;;;;;;;;19.70;62.47;100388.03;1017372;29;698;-74
2022/09/15 02:11:58;;;;;;;;;;;;;;;19.70;62.60;100388.88;1017288;29;765;-74
2022/09/15 02:12:49;;;;;;;;;;;;;;;19.71;62.77;100390.53;1016784;29;691;-73
2022/09/15 02:13:40;;;;;;;;;;;;;;;19.70;62.63;100388.03;1017855;29;830;-74
2022/09/15 02:14:32;;;;;;;;;;;;;;;19.72;62.38;100392.22;1017195;29;640;-74
2022/09/15 02:15:23;;;;;;;;;;;;;;;19.72;62.12;100391.38;1017840;29;678;-75
2022/09/15 02:16:18;;;;;;;;;;;;;;;19.71;62.36;100385.13;1017164;29;2321;-75
2022/09/15 02:17:08;;;;;;;;;;;;;;;19.72;62.42;100392.22;1017887;29;607;-74
2022/09/15 02:17:59;;;;;;;;;;;;;;;19.72;62.39;100397.63;1017285;29;690;-74
2022/09/15 02:18:50;;;;;;;;;;;;;;;19.72;61.97;100397.63;1017212;29;691;-74
2022/09/15 02:19:40;;;;;;;;;;;;;;;19.72;62.46;100392.22;1017258;29;816;-73
2022/09/15 02:20:32;;;;;;;;;;;;;;;19.72;62.60;100397.63;1017742;29;619;-74
2022/09/15 02:21:22;;;;;;;;;;;;;;;19.71;62.16;100387.81;1017280;29;687;-74
2022/09/15 02:22:14;;;;;;;;;;;;;;;19.71;62.02;100395.94;1017845;29;702;-73
2022/09/15 02:23:07;;;;;;;;;;;;;;;19.69;61.98;100395.28;1017735;29;978;-74
2022/09/15 02:23:57;;;;;;;;;;;;;;;19.71;62.45;100395.09;1017200;29;674;-74
2022/09/15 02:24:48;;;;;;;;;;;;;;;19.71;62.43;100387.81;1017152;29;576;-74
2022/09/15 02:25:39;;;;;;;;;;;;;;;19.69;62.45;100389.88;1017276;29;711;-74
2022/09/15 02:26:29;;;;;;;;;;;;;;;19.70;62.33;100391.56;1017843;29;631;-74
2022/09/15 02:27:21;;;;;;;;;;;;;;;19.71;62.13;100406.75;1017087;29;698;-74
2022/09/15 02:28:11;;;;;;;;;;;;;;;19.72;61.89;100392.22;1017656;29;1600;-74
2022/09/15 02:29:02;;;;;;;;;;;;;;;19.72;62.10;100394.09;1016713;29;695;-74
2022/09/15 02:29:52;;;;;;;;;;;;;;;19.71;62.22;100387.81;1016654;29;670;-74
2022/09/15 02:30:43;;;;;;;;;;;;;;;19.69;62.01;100389.88;1016313;29;651;-74
2022/09/15 02:31:34;;;;;;;;;;;;;;;19.68;62.36;100385.50;1017283;29;636;-73
2022/09/15 02:32:24;;;;;;;;;;;;;;;19.69;61.92;100387.19;1016150;29;580;-74
2022/09/15 02:33:15;;;;;;;;;;;;;;;19.70;62.29;100394.28;1016203;29;655;-73
2022/09/15 02:34:05;;;;;;;;;;;;;;;19.69;62.41;100395.28;1016039;29;659;-73
2022/09/15 02:34:56;;;;;;;;;;;;;;;19.70;62.85;100388.03;1016676;29;647;-74
2022/09/15 02:35:46;;;;;;;;;;;;;;;19.70;61.94;100385.31;1015979;29;753;-74
2022/09/15 02:36:36;;;;;;;;;;;;;;;19.68;62.02;100380.09;1016244;29;706;-74
2022/09/15 02:37:27;;;;;;;;;;;;;;;19.69;62.00;100394.44;1015971;29;651;-74
2022/09/15 02:38:18;;;;;;;;;;;;;;;19.68;62.66;100387.34;1016175;29;834;-73
2022/09/15 02:39:08;;;;;;;;;;;;;;;19.67;62.40;100394.63;1016635;29;683;-73
2022/09/15 02:39:58;;;;;;;;;;;;;;;19.68;62.46;100385.50;1016522;29;1133;-73
2022/09/15 02:40:49;;;;;;;;;;;;;;;19.65;61.96;100385.81;1016623;29;730;-74
2022/09/15 02:41:40;;;;;;;;;;;;;;;19.66;62.58;100390.22;1016084;29;711;-74
2022/09/15 02:42:30;;;;;;;;;;;;;;;19.66;61.93;100387.50;1017783;29;660;-74
2022/09/15 02:43:22;;;;;;;;;;;;;;;19.67;61.88;100389.22;1015825;29;646;-74
2022/09/15 02:44:12;;;;;;;;;;;;;;;19.67;62.70;100389.22;1017805;29;552;-74
2022/09/15 02:45:03;;;;;;;;;;;;;;;19.67;62.47;100389.22;1016160;29;734;-74
2022/09/15 02:45:53;;;;;;;;;;;;;;;19.67;62.50;100393.78;1015919;29;640;-74
2022/09/15 02:46:44;;;;;;;;;;;;;;;19.67;62.63;100394.63;1017110;29;663;-73
2022/09/15 02:47:34;;;;;;;;;;;;;;;19.67;62.40;100394.63;1016115;29;969;-73
2022/09/15 02:48:25;;;;;;;;;;;;;;;19.67;62.15;100389.22;1016071;29;1570;-74
2022/09/15 02:49:15;;;;;;;;;;;;;;;19.60;62.03;100399.00;1016044;29;682;-74
2022/09/15 02:50:06;;;;;;;;;;;;;;;19.61;62.29;100392.56;1016137;29;1591;-73
2022/09/15 02:50:56;;;;;;;;;;;;;;;19.64;62.86;100392.25;1016066;29;616;-74
2022/09/15 02:51:47;;;;;;;;;;;;;;;19.64;62.59;100389.53;1016090;29;659;-74
2022/09/15 02:52:37;;;;;;;;;;;;;;;19.64;62.23;100392.25;1015973;29;705;-74
2022/09/15 02:53:27;;;;;;;;;;;;;;;19.65;62.27;100391.22;1016125;29;660;-75
2022/09/15 02:54:18;;;;;;;;;;;;;;;19.65;62.38;100404.75;1016189;29;671;-74
2022/09/15 02:55:08;;;;;;;;;;;;;;;19.65;61.89;100396.63;1016040;29;695;-74
2022/09/15 02:55:59;;;;;;;;;;;;;;;19.65;62.05;100393.09;1015965;29;1964;-73
2022/09/15 02:56:49;;;;;;;;;;;;;;;19.66;62.38;100397.47;1015979;29;611;-74
2022/09/15 02:57:39;;;;;;;;;;;;;;;19.67;62.08;100391.91;1015602;29;703;-73
2022/09/15 02:58:30;;;;;;;;;;;;;;;19.67;62.41;100399.19;1016163;29;655;-73
2022/09/15 02:59:20;;;;;;;;;;;;;;;19.64;62.23;100396.81;1016074;29;632;-73
2022/09/15 03:00:15;;;;;;;;;;;;;;;19.63;62.04;100395.97;1016093;29;659;-72
2022/09/15 03:01:06;;;;;;;;;;;;;;;19.63;62.49;100395.09;1017102;29;674;-73
2022/09/15 03:01:57;;;;;;;;;;;;;;;19.63;62.36;100393.25;1016515;29;679;-74
2022/09/15 03:02:51;;;;;;;;;;;;;;;19.65;62.35;100395.78;1017668;29;663;-74
2022/09/15 03:03:41;;;;;;;;;;;;;;;19.65;61.89;100399.34;1016115;29;707;-73
2022/09/15 03:04:31;;;;;;;;;;;;;;;19.65;62.34;100391.22;1016051;29;655;-73
2022/09/15 03:05:22;;;;;;;;;;;;;;;19.65;62.30;100393.94;1016656;29;691;-73
2022/09/15 03:06:15;;;;;;;;;;;;;;;19.64;62.56;100396.81;1015974;29;684;-74
2022/09/15 03:07:06;;;;;;;;;;;;;;;19.63;62.73;100398.66;1016126;29;667;-73
2022/09/15 03:07:56;;;;;;;;;;;;;;;19.64;62.62;100399.50;1017146;29;1611;-73
2022/09/15 03:08:47;;;;;;;;;;;;;;;19.64;62.37;100403.06;1021514;29;627;-73
2022/09/15 03:09:37;;;;;;;;;;;;;;;19.64;62.07;100400.34;1021667;29;587;-73
2022/09/15 03:10:28;;;;;;;;;;;;;;;19.64;62.25;100400.34;1021658;28;702;-73
2022/09/15 03:11:20;;;;;;;;;;;;;;;19.64;62.29;100405.75;1021623;29;657;-74
2022/09/15 03:12:11;;;;;;;;;;;;;;;19.63;61.88;100398.66;1020021;29;698;-73
2022/09/15 03:13:01;;;;;;;;;;;;;;;19.61;62.24;100399.84;1020954;29;788;-73
2022/09/15 03:13:51;;;;;;;;;;;;;;;19.60;62.38;100403.56;1021518;28;706;-74
2022/09/15 03:14:42;;;;;;;;;;;;;;;19.62;62.47;100398.81;1021448;29;635;-75
2022/09/15 03:15:33;;;;;;;;;;;;;;;19.63;62.13;100409.47;1020007;29;655;-74
2022/09/15 03:16:23;;;;;;;;;;;;;;;19.63;62.16;100408.63;1019205;29;1895;-74
2022/09/15 03:17:14;;;;;;;;;;;;;;;19.51;61.60;100410.84;1021578;28;764;-74
2022/09/15 03:18:04;;;;;;;;;;;;;;;19.53;62.62;100414.19;1021657;28;651;-74
2022/09/15 03:18:54;;;;;;;;;;;;;;;19.56;62.22;100418.41;1021424;29;647;-73
2022/09/15 03:19:45;;;;;;;;;;;;;;;19.47;61.81;100409.44;1021520;29;659;-74
2022/09/15 03:20:36;;;;;;;;;;;;;;;19.49;62.86;100407.41;1021580;28;681;-74
2022/09/15 03:21:28;;;;;;;;;;;;;;;19.52;62.11;100409.81;1020408;29;538;-74
2022/09/15 03:22:18;;;;;;;;;;;;;;;19.49;61.65;100412.81;1020310;29;652;-74
2022/09/15 03:23:09;;;;;;;;;;;;;;;19.45;62.15;100416.00;1021481;28;631;-74
2022/09/15 03:24:00;;;;;;;;;;;;;;;19.49;62.51;100411.97;1020436;29;710;-73
2022/09/15 03:24:50;;;;;;;;;;;;;;;19.52;62.36;100411.69;1021589;28;627;-73
2022/09/15 03:25:41;;;;;;;;;;;;;;;19.45;62.94;100410.63;1021531;29;677;-74
2022/09/15 03:26:31;;;;;;;;;;;;;;;19.48;61.90;100411.13;1020557;29;622;-73
2022/09/15 03:27:22;;;;;;;;;;;;;;;19.53;61.75;100410.63;1021490;28;744;-73
2022/09/15 03:28:12;;;;;;;;;;;;;;;19.52;61.95;100414.38;1017681;29;705;-74
2022/09/15 03:29:03;;;;;;;;;;;;;;;19.48;61.83;100411.13;1016120;29;639;-74
2022/09/15 03:29:53;;;;;;;;;;;;;;;19.44;62.05;100415.16;1015836;29;690;-73
2022/09/15 03:30:44;;;;;;;;;;;;;;;19.45;62.71;100416.00;1016536;29;676;-74
2022/09/15 03:31:34;;;;;;;;;;;;;;;19.50;61.88;100414.53;1015960;29;619;-73
2022/09/15 03:32:25;;;;;;;;;;;;;;;19.49;61.27;100411.97;1016060;29;727;-73
2022/09/15 03:33:15;;;;;;;;;;;;;;;19.46;62.37;100415.84;1015826;29;686;-73
2022/09/15 03:34:05;;;;;;;;;;;;;;;19.51;62.26;100416.25;1015970;29;659;-73
2022/09/15 03:34:56;;;;;;;;;;;;;;;19.52;61.83;100425.19;1016055;29;671;-72
2022/09/15 03:35:46;;;;;;;;;;;;;;;19.51;61.58;100421.66;1015862;29;651;-73
2022/09/15 03:36:37;;;;;;;;;;;;;;;19.47;62.43;100414.84;1016060;29;729;-74
2022/09/15 03:37:27;;;;;;;;;;;;;;;19.50;62.51;100414.53;1017040;29;627;-73
2022/09/15 03:38:18;;;;;;;;;;;;;;;19.53;61.58;100413.34;1015981;29;636;-73
2022/09/15 03:39:08;;;;;;;;;;;;;;;19.52;62.00;100422.50;1015858;29;725;-73
2022/09/15 03:39:59;;;;;;;;;;;;;;;19.41;61.76;100421.75;1016711;29;1098;-73
2022/09/15 03:40:49;;;;;;;;;;;;;;;19.38;62.47;100418.53;1015797;29;635;-73
2022/09/15 03:41:40;;;;;;;;;;;;;;;19.41;62.61;100415.50;1017093;29;715;-73
2022/09/15 03:42:31;;;;;;;;;;;;;;;19.44;61.99;100417.88;1015855;29;699;-74
2022/09/15 03:43:21;;;;;;;;;;;;;;;19.46;61.26;100413.16;1016440;29;637;-73
2022/09/15 03:44:12;;;;;;;;;;;;;;;19.48;61.96;100415.69;1016860;29;616;-74
2022/09/15 03:45:03;;;;;;;;;;;;;;;19.50;62.20;100411.00;1016967;29;706;-73
2022/09/15 03:45:53;;;;;;;;;;;;;;;19.51;62.27;100410.84;1017307;29;1619;-74
2022/09/15 03:46:44;;;;;;;;;;;;;;;19.52;61.80;100408.97;1016605;29;662;-74
2022/09/15 03:47:34;;;;;;;;;;;;;;;19.52;62.32;100412.53;1019695;29;538;-74
2022/09/15 03:48:25;;;;;;;;;;;;;;;19.53;61.73;100413.34;1019733;29;717;-74
2022/09/15 03:49:15;;;;;;;;;;;;;;;19.53;62.00;100414.19;1019936;29;646;-74
2022/09/15 03:50:05;;;;;;;;;;;;;;;19.54;61.91;100401.50;1020264;29;641;-74
2022/09/15 03:50:56;;;;;;;;;;;;;;;19.54;62.10;100409.63;1020407;29;691;-74
2022/09/15 03:51:46;;;;;;;;;;;;;;;19.53;62.04;100408.78;1020335;29;651;-73
2022/09/15 03:52:37;;;;;;;;;;;;;;;19.52;61.79;100409.81;1019842;29;657;-73
2022/09/15 03:53:27;;;;;;;;;;;;;;;19.51;62.36;100418.94;1019695;29;695;-73
2022/09/15 03:54:18;;;;;;;;;;;;;;;19.50;62.06;100409.13;1019737;29;608;-73
2022/09/15 03:55:09;;;;;;;;;;;;;;;19.51;62.26;100416.25;1020328;29;702;-73
2022/09/15 03:55:59;;;;;;;;;;;;;;;19.51;62.25;100418.94;1019472;29;1923;-73
2022/09/15 03:56:50;;;;;;;;;;;;;;;19.51;62.68;100416.25;1019848;29;746;-73
2022/09/15 03:57:41;;;;;;;;;;;;;;;19.49;61.96;100418.22;1020488;29;640;-73
2022/09/15 03:58:31;;;;;;;;;;;;;;;19.51;61.85;100415.38;1020191;29;585;-74
2022/09/15 03:59:22;;;;;;;;;;;;;;;19.49;62.24;100418.22;1020945;29;770;-73
2022/09/15 04:00:12;;;;;;;;;;;;;;;19.51;61.86;100421.66;1020224;29;579;-74
2022/09/15 04:01:03;;;;;;;;;;;;;;;19.51;61.93;100421.66;1020077;29;666;-74
2022/09/15 04:01:53;;;;;;;;;;;;;;;19.51;62.10;100415.38;1020023;29;640;-74
2022/09/15 04:02:44;;;;;;;;;;;;;;;19.51;61.58;100421.66;1020381;29;590;-74
2022/09/15 04:03:34;;;;;;;;;;;;;;;19.52;61.78;100417.09;1020883;29;678;-74
2022/09/15 04:04:25;;;;;;;;;;;;;;;19.53;62.02;100413.34;1020012;29;643;-74
2022/09/15 04:05:15;;;;;;;;;;;;;;;19.52;62.17;100417.09;1020092;29;695;-74
2022/09/15 04:06:05;;;;;;;;;;;;;;;19.42;62.22;100411.78;1012345;29;643;-74
2022/09/15 04:06:56;;;;;;;;;;;;;;;19.43;61.95;100413.47;1012710;29;662;-74
2022/09/15 04:07:46;;;;;;;;;;;;;;;19.44;62.07;100415.16;1019517;29;1596;-74
2022/09/15 04:08:37;;;;;;;;;;;;;;;19.47;62.12;100414.00;1021383;28;666;-73
2022/09/15 04:09:27;;;;;;;;;;;;;;;19.48;62.29;100407.59;1021459;28;571;-73
2022/09/15 04:10:18;;;;;;;;;;;;;;;19.50;62.34;100416.41;1019861;29;761;-73
2022/09/15 04:11:08;;;;;;;;;;;;;;;19.47;62.26;100409.44;1021422;28;612;-73
2022/09/15 04:11:58;;;;;;;;;;;;;;;19.48;62.29;100416.53;1021434;29;639;-73
2022/09/15 04:12:49;;;;;;;;;;;;;;;19.49;61.84;100415.53;1021430;29;650;-73
2022/09/15 04:13:40;;;;;;;;;;;;;;;19.49;62.20;100418.22;1021479;28;646;-73
2022/09/15 04:14:30;;;;;;;;;;;;;;;19.49;61.93;100410.13;1020268;29;636;-73
2022/09/15 04:15:21;;;;;;;;;;;;;;;19.43;61.12;100416.19;1021032;28;1271;-73
2022/09/15 04:16:11;;;;;;;;;;;;;;;19.31;61.49;100420.22;1016864;29;1903;-74
2022/09/15 04:17:02;;;;;;;;;;;;;;;19.39;62.09;100417.53;1016999;29;663;-73
2022/09/15 04:17:53;;;;;;;;;;;;;;;19.41;62.65;100415.50;1016450;29;624;-73
2022/09/15 04:18:43;;;;;;;;;;;;;;;19.42;62.50;100415.34;1016430;29;636;-73
2022/09/15 04:19:34;;;;;;;;;;;;;;;19.46;62.33;100417.72;1016995;29;671;-73
2022/09/15 04:20:24;;;;;;;;;;;;;;;19.44;61.88;100420.56;1016286;29;729;-73
2022/09/15 04:21:15;;;;;;;;;;;;;;;19.47;62.21;100419.41;1016993;29;615;-73
2022/09/15 04:22:05;;;;;;;;;;;;;;;19.48;62.32;100424.63;1016967;29;714;-73
2022/09/15 04:22:56;;;;;;;;;;;;;;;19.47;61.70;100419.41;1016446;29;658;-74
2022/09/15 04:23:46;;;;;;;;;;;;;;;19.37;61.84;100423.09;1016931;29;639;-74
2022/09/15 04:24:37;;;;;;;;;;;;;;;19.39;61.90;100425.63;1016003;29;635;-74
2022/09/15 04:25:28;;;;;;;;;;;;;;;19.42;62.10;100422.59;1019008;29;1262;-74
2022/09/15 04:26:18;;;;;;;;;;;;;;;19.43;62.12;100427.00;1017523;29;590;-74
2022/09/15 04:27:09;;;;;;;;;;;;;;;19.45;62.07;100427.69;1017463;29;702;-74